sensor_id;sensor_type;location;lat;lon;timestamp;P1;durP1;ratioP1;P2;durP2;ratioP2
49193;SDS011;35029;50.804;12.866;2023-09-12T00:00:08;8.80;;;7.90;;
49193;SDS011;35029;50.804;12.866;2023-09-12T00:02:38;9.40;;;8.40;;
49193;SDS011;35029;50.804;12.866;2023-09-12T00:05:03;11.48;;;8.38;;
49193;SDS011;35029;50.804;12.866;2023-09-12T00:07:30;10.60;;;7.55;;
49193;SDS011;35029;50.804;12.866;2023-09-12T00:09:55;8.40;;;7.30;;
49193;SDS011;35029;50.804;12.866;2023-09-12T00:12:22;8.68;;;7.85;;
49193;SDS011;35029;50.804;12.866;2023-09-12T00:14:49;11.13;;;7.82;;
49193;SDS011;35029;50.804;12.866;2023-09-12T00:17:15;10.65;;;8.02;;
49193;SDS011;35029;50.804;12.866;2023-09-12T00:19:40;9.63;;;8.50;;
49193;SDS011;35029;50.804;12.866;2023-09-12T00:22:07;8.65;;;7.75;;
49193;SDS011;35029;50.804;12.866;2023-09-12T00:24:33;12.23;;;9.05;;
49193;SDS011;35029;50.804;12.866;2023-09-12T00:26:58;11.40;;;8.52;;
49193;SDS011;35029;50.804;12.866;2023-09-12T00:29:24;9.85;;;8.90;;
49193;SDS011;35029;50.804;12.866;2023-09-12T00:31:49;12.98;;;8.60;;
49193;SDS011;35029;50.804;12.866;2023-09-12T00:34:18;10.68;;;8.88;;
49193;SDS011;35029;50.804;12.866;2023-09-12T00:36:43;10.85;;;8.25;;
49193;SDS011;35029;50.804;12.866;2023-09-12T00:39:09;12.23;;;9.07;;
49193;SDS011;35029;50.804;12.866;2023-09-12T00:41:35;9.27;;;8.27;;
49193;SDS011;35029;50.804;12.866;2023-09-12T00:44:00;9.32;;;8.30;;
49193;SDS011;35029;50.804;12.866;2023-09-12T00:46:26;13.43;;;7.88;;
49193;SDS011;35029;50.804;12.866;2023-09-12T00:48:53;9.70;;;7.97;;
49193;SDS011;35029;50.804;12.866;2023-09-12T00:51:20;10.50;;;7.93;;
49193;SDS011;35029;50.804;12.866;2023-09-12T00:53:48;8.32;;;7.53;;
49193;SDS011;35029;50.804;12.866;2023-09-12T00:56:14;9.63;;;8.63;;
49193;SDS011;35029;50.804;12.866;2023-09-12T00:58:40;9.45;;;8.52;;
49193;SDS011;35029;50.804;12.866;2023-09-12T01:01:06;11.10;;;8.45;;
49193;SDS011;35029;50.804;12.866;2023-09-12T01:03:32;9.10;;;7.55;;
49193;SDS011;35029;50.804;12.866;2023-09-12T01:05:58;9.05;;;8.15;;
49193;SDS011;35029;50.804;12.866;2023-09-12T01:08:24;14.38;;;8.52;;
49193;SDS011;35029;50.804;12.866;2023-09-12T01:10:50;9.25;;;8.35;;
49193;SDS011;35029;50.804;12.866;2023-09-12T01:13:18;10.13;;;8.90;;
49193;SDS011;35029;50.804;12.866;2023-09-12T01:15:44;8.70;;;7.30;;
49193;SDS011;35029;50.804;12.866;2023-09-12T01:18:09;8.45;;;7.65;;
49193;SDS011;35029;50.804;12.866;2023-09-12T01:20:36;9.80;;;7.47;;
49193;SDS011;35029;50.804;12.866;2023-09-12T01:28:25;9.02;;;7.90;;
49193;SDS011;35029;50.804;12.866;2023-09-12T01:30:54;11.85;;;8.45;;
49193;SDS011;35029;50.804;12.866;2023-09-12T01:33:20;12.32;;;8.40;;
49193;SDS011;35029;50.804;12.866;2023-09-12T01:35:46;11.20;;;8.30;;
49193;SDS011;35029;50.804;12.866;2023-09-12T01:38:12;9.23;;;8.23;;
49193;SDS011;35029;50.804;12.866;2023-09-12T01:40:41;13.80;;;8.07;;
49193;SDS011;35029;50.804;12.866;2023-09-12T01:45:35;11.68;;;8.73;;
49193;SDS011;35029;50.804;12.866;2023-09-12T01:48:02;12.80;;;7.60;;
49193;SDS011;35029;50.804;12.866;2023-09-12T01:50:31;9.90;;;7.88;;
49193;SDS011;35029;50.804;12.866;2023-09-12T01:52:58;10.77;;;7.85;;
49193;SDS011;35029;50.804;12.866;2023-09-12T01:55:24;10.13;;;7.55;;
49193;SDS011;35029;50.804;12.866;2023-09-12T01:57:51;9.85;;;8.32;;
49193;SDS011;35029;50.804;12.866;2023-09-12T02:00:17;8.10;;;7.30;;
49193;SDS011;35029;50.804;12.866;2023-09-12T02:02:44;7.97;;;7.18;;
49193;SDS011;35029;50.804;12.866;2023-09-12T02:05:14;7.88;;;7.07;;
49193;SDS011;35029;50.804;12.866;2023-09-12T02:07:45;10.98;;;7.28;;
49193;SDS011;35029;50.804;12.866;2023-09-12T02:10:11;9.60;;;7.00;;
49193;SDS011;35029;50.804;12.866;2023-09-12T02:12:37;9.18;;;7.13;;
49193;SDS011;35029;50.804;12.866;2023-09-12T02:15:04;12.00;;;7.13;;
49193;SDS011;35029;50.804;12.866;2023-09-12T02:17:30;11.68;;;6.70;;
49193;SDS011;35029;50.804;12.866;2023-09-12T02:19:55;8.63;;;6.53;;
49193;SDS011;35029;50.804;12.866;2023-09-12T02:22:21;8.05;;;7.10;;
49193;SDS011;35029;50.804;12.866;2023-09-12T02:24:47;7.65;;;6.93;;
49193;SDS011;35029;50.804;12.866;2023-09-12T02:27:12;8.13;;;7.28;;
49193;SDS011;35029;50.804;12.866;2023-09-12T02:29:41;11.02;;;7.32;;
49193;SDS011;35029;50.804;12.866;2023-09-12T02:32:07;10.38;;;7.70;;
49193;SDS011;35029;50.804;12.866;2023-09-12T02:34:33;7.88;;;7.07;;
49193;SDS011;35029;50.804;12.866;2023-09-12T02:36:59;8.50;;;6.97;;
49193;SDS011;35029;50.804;12.866;2023-09-12T02:39:25;9.18;;;7.47;;
49193;SDS011;35029;50.804;12.866;2023-09-12T02:41:50;8.85;;;7.95;;
49193;SDS011;35029;50.804;12.866;2023-09-12T02:44:17;9.07;;;6.90;;
49193;SDS011;35029;50.804;12.866;2023-09-12T02:46:42;7.22;;;6.53;;
49193;SDS011;35029;50.804;12.866;2023-09-12T02:49:08;8.60;;;7.35;;
49193;SDS011;35029;50.804;12.866;2023-09-12T02:51:36;8.77;;;6.55;;
49193;SDS011;35029;50.804;12.866;2023-09-12T02:54:03;7.05;;;6.35;;
49193;SDS011;35029;50.804;12.866;2023-09-12T02:56:29;10.65;;;7.43;;
49193;SDS011;35029;50.804;12.866;2023-09-12T02:58:55;10.70;;;7.82;;
49193;SDS011;35029;50.804;12.866;2023-09-12T03:01:21;14.77;;;7.97;;
49193;SDS011;35029;50.804;12.866;2023-09-12T03:03:48;7.90;;;7.07;;
49193;SDS011;35029;50.804;12.866;2023-09-12T03:06:14;9.15;;;7.43;;
49193;SDS011;35029;50.804;12.866;2023-09-12T03:08:41;8.82;;;6.85;;
49193;SDS011;35029;50.804;12.866;2023-09-12T03:11:07;8.73;;;6.75;;
49193;SDS011;35029;50.804;12.866;2023-09-12T03:13:33;9.48;;;8.05;;
49193;SDS011;35029;50.804;12.866;2023-09-12T03:16:02;9.45;;;6.30;;
49193;SDS011;35029;50.804;12.866;2023-09-12T03:18:28;9.95;;;6.82;;
49193;SDS011;35029;50.804;12.866;2023-09-12T03:20:54;8.90;;;7.25;;
49193;SDS011;35029;50.804;12.866;2023-09-12T03:23:20;8.35;;;7.55;;
49193;SDS011;35029;50.804;12.866;2023-09-12T03:25:45;8.00;;;7.18;;
49193;SDS011;35029;50.804;12.866;2023-09-12T03:28:13;9.05;;;7.57;;
49193;SDS011;35029;50.804;12.866;2023-09-12T03:30:38;7.22;;;6.53;;
49193;SDS011;35029;50.804;12.866;2023-09-12T03:33:05;12.75;;;7.38;;
49193;SDS011;35029;50.804;12.866;2023-09-12T03:35:32;11.80;;;7.82;;
49193;SDS011;35029;50.804;12.866;2023-09-12T03:37:59;12.50;;;8.25;;
49193;SDS011;35029;50.804;12.866;2023-09-12T03:40:27;8.43;;;7.18;;
49193;SDS011;35029;50.804;12.866;2023-09-12T03:42:53;10.23;;;7.68;;
49193;SDS011;35029;50.804;12.866;2023-09-12T03:45:20;7.95;;;7.15;;
49193;SDS011;35029;50.804;12.866;2023-09-12T03:47:45;12.48;;;7.63;;
49193;SDS011;35029;50.804;12.866;2023-09-12T03:50:13;11.20;;;7.43;;
49193;SDS011;35029;50.804;12.866;2023-09-12T03:52:39;12.20;;;7.13;;
49193;SDS011;35029;50.804;12.866;2023-09-12T03:55:05;12.48;;;7.63;;
49193;SDS011;35029;50.804;12.866;2023-09-12T03:57:31;16.40;;;8.52;;
49193;SDS011;35029;50.804;12.866;2023-09-12T03:59:57;10.23;;;7.35;;
49193;SDS011;35029;50.804;12.866;2023-09-12T04:02:22;11.77;;;7.75;;
49193;SDS011;35029;50.804;12.866;2023-09-12T04:04:48;10.70;;;8.63;;
49193;SDS011;35029;50.804;12.866;2023-09-12T04:07:14;10.60;;;7.78;;
49193;SDS011;35029;50.804;12.866;2023-09-12T04:09:39;13.60;;;8.50;;
49193;SDS011;35029;50.804;12.866;2023-09-12T04:12:05;14.85;;;8.70;;
49193;SDS011;35029;50.804;12.866;2023-09-12T04:14:32;17.30;;;9.07;;
49193;SDS011;35029;50.804;12.866;2023-09-12T04:16:57;14.75;;;8.88;;
49193;SDS011;35029;50.804;12.866;2023-09-12T04:19:25;11.80;;;8.77;;
49193;SDS011;35029;50.804;12.866;2023-09-12T04:21:50;11.15;;;8.73;;
49193;SDS011;35029;50.804;12.866;2023-09-12T04:24:16;9.98;;;8.02;;
49193;SDS011;35029;50.804;12.866;2023-09-12T04:26:42;10.30;;;8.95;;
49193;SDS011;35029;50.804;12.866;2023-09-12T04:29:09;11.70;;;8.50;;
49193;SDS011;35029;50.804;12.866;2023-09-12T04:31:35;9.57;;;8.35;;
49193;SDS011;35029;50.804;12.866;2023-09-12T04:34:01;13.18;;;8.70;;
49193;SDS011;35029;50.804;12.866;2023-09-12T04:36:26;13.75;;;7.90;;
49193;SDS011;35029;50.804;12.866;2023-09-12T04:38:52;11.30;;;8.35;;
49193;SDS011;35029;50.804;12.866;2023-09-12T04:41:18;9.43;;;8.25;;
49193;SDS011;35029;50.804;12.866;2023-09-12T04:43:43;9.18;;;8.20;;
49193;SDS011;35029;50.804;12.866;2023-09-12T04:46:12;10.38;;;8.07;;
49193;SDS011;35029;50.804;12.866;2023-09-12T04:48:38;8.95;;;7.47;;
49193;SDS011;35029;50.804;12.866;2023-09-12T04:51:04;9.90;;;7.60;;
49193;SDS011;35029;50.804;12.866;2023-09-12T04:53:30;12.65;;;8.55;;
49193;SDS011;35029;50.804;12.866;2023-09-12T04:56:00;8.85;;;7.90;;
49193;SDS011;35029;50.804;12.866;2023-09-12T04:58:27;8.95;;;8.02;;
49193;SDS011;35029;50.804;12.866;2023-09-12T05:00:53;10.70;;;8.65;;
49193;SDS011;35029;50.804;12.866;2023-09-12T05:03:19;11.55;;;8.02;;
49193;SDS011;35029;50.804;12.866;2023-09-12T05:05:46;13.10;;;8.70;;
49193;SDS011;35029;50.804;12.866;2023-09-12T05:08:12;12.48;;;8.75;;
49193;SDS011;35029;50.804;12.866;2023-09-12T05:10:38;9.80;;;8.77;;
49193;SDS011;35029;50.804;12.866;2023-09-12T05:13:04;13.65;;;9.25;;
49193;SDS011;35029;50.804;12.866;2023-09-12T05:15:30;12.02;;;8.60;;
49193;SDS011;35029;50.804;12.866;2023-09-12T05:17:56;11.43;;;8.23;;
49193;SDS011;35029;50.804;12.866;2023-09-12T05:20:22;9.15;;;8.20;;
49193;SDS011;35029;50.804;12.866;2023-09-12T05:22:47;15.40;;;8.98;;
49193;SDS011;35029;50.804;12.866;2023-09-12T05:25:13;11.75;;;8.60;;
49193;SDS011;35029;50.804;12.866;2023-09-12T05:27:39;9.77;;;8.25;;
49193;SDS011;35029;50.804;12.866;2023-09-12T05:30:05;13.85;;;8.25;;
49193;SDS011;35029;50.804;12.866;2023-09-12T05:32:31;13.05;;;8.70;;
49193;SDS011;35029;50.804;12.866;2023-09-12T05:34:56;10.15;;;8.90;;
49193;SDS011;35029;50.804;12.866;2023-09-12T05:37:22;14.13;;;7.75;;
49193;SDS011;35029;50.804;12.866;2023-09-12T05:39:47;9.25;;;8.18;;
49193;SDS011;35029;50.804;12.866;2023-09-12T05:42:13;13.52;;;8.68;;
49193;SDS011;35029;50.804;12.866;2023-09-12T05:44:40;11.43;;;8.40;;
49193;SDS011;35029;50.804;12.866;2023-09-12T05:47:07;9.73;;;8.30;;
49193;SDS011;35029;50.804;12.866;2023-09-12T05:49:33;9.40;;;7.93;;
49193;SDS011;35029;50.804;12.866;2023-09-12T05:51:59;10.98;;;8.50;;
49193;SDS011;35029;50.804;12.866;2023-09-12T05:54:26;14.50;;;8.43;;
49193;SDS011;35029;50.804;12.866;2023-09-12T05:56:51;10.43;;;7.25;;
49193;SDS011;35029;50.804;12.866;2023-09-12T05:59:18;10.13;;;8.48;;
49193;SDS011;35029;50.804;12.866;2023-09-12T06:01:44;12.25;;;9.50;;
49193;SDS011;35029;50.804;12.866;2023-09-12T06:04:10;15.40;;;7.97;;
49193;SDS011;35029;50.804;12.866;2023-09-12T06:06:36;12.13;;;8.88;;
49193;SDS011;35029;50.804;12.866;2023-09-12T06:09:01;11.55;;;9.63;;
49193;SDS011;35029;50.804;12.866;2023-09-12T06:11:28;25.88;;;10.30;;
49193;SDS011;35029;50.804;12.866;2023-09-12T06:13:54;10.48;;;8.65;;
49193;SDS011;35029;50.804;12.866;2023-09-12T06:16:19;10.73;;;9.07;;
49193;SDS011;35029;50.804;12.866;2023-09-12T06:18:45;13.05;;;9.13;;
49193;SDS011;35029;50.804;12.866;2023-09-12T06:21:11;9.55;;;8.55;;
49193;SDS011;35029;50.804;12.866;2023-09-12T06:23:36;12.35;;;8.82;;
49193;SDS011;35029;50.804;12.866;2023-09-12T06:26:02;8.75;;;7.85;;
49193;SDS011;35029;50.804;12.866;2023-09-12T06:28:29;11.55;;;8.90;;
49193;SDS011;35029;50.804;12.866;2023-09-12T06:30:56;9.65;;;7.80;;
49193;SDS011;35029;50.804;12.866;2023-09-12T06:33:22;13.60;;;9.50;;
49193;SDS011;35029;50.804;12.866;2023-09-12T06:35:49;9.45;;;8.40;;
49193;SDS011;35029;50.804;12.866;2023-09-12T06:38:15;9.00;;;7.80;;
49193;SDS011;35029;50.804;12.866;2023-09-12T06:40:44;9.90;;;7.55;;
49193;SDS011;35029;50.804;12.866;2023-09-12T06:43:10;8.73;;;7.82;;
49193;SDS011;35029;50.804;12.866;2023-09-12T06:45:36;8.30;;;7.05;;
49193;SDS011;35029;50.804;12.866;2023-09-12T06:48:03;10.60;;;6.70;;
49193;SDS011;35029;50.804;12.866;2023-09-12T06:50:29;12.63;;;7.57;;
49193;SDS011;35029;50.804;12.866;2023-09-12T06:52:54;7.50;;;6.80;;
49193;SDS011;35029;50.804;12.866;2023-09-12T06:55:20;8.32;;;6.90;;
49193;SDS011;35029;50.804;12.866;2023-09-12T06:57:46;7.78;;;6.38;;
49193;SDS011;35029;50.804;12.866;2023-09-12T07:00:12;7.05;;;6.35;;
49193;SDS011;35029;50.804;12.866;2023-09-12T07:02:38;7.35;;;6.65;;
49193;SDS011;35029;50.804;12.866;2023-09-12T07:05:04;10.00;;;6.35;;
49193;SDS011;35029;50.804;12.866;2023-09-12T07:07:30;8.55;;;5.88;;
49193;SDS011;35029;50.804;12.866;2023-09-12T07:09:56;8.00;;;5.80;;
49193;SDS011;35029;50.804;12.866;2023-09-12T07:12:21;7.15;;;6.45;;
49193;SDS011;35029;50.804;12.866;2023-09-12T07:14:47;8.20;;;5.68;;
49193;SDS011;35029;50.804;12.866;2023-09-12T07:17:13;8.88;;;6.18;;
49193;SDS011;35029;50.804;12.866;2023-09-12T07:19:38;8.52;;;5.97;;
49193;SDS011;35029;50.804;12.866;2023-09-12T07:22:03;6.07;;;5.45;;
49193;SDS011;35029;50.804;12.866;2023-09-12T07:24:29;5.57;;;5.07;;
49193;SDS011;35029;50.804;12.866;2023-09-12T07:26:55;6.80;;;4.85;;
49193;SDS011;35029;50.804;12.866;2023-09-12T07:29:20;6.13;;;5.20;;
49193;SDS011;35029;50.804;12.866;2023-09-12T07:31:46;7.00;;;5.88;;
49193;SDS011;35029;50.804;12.866;2023-09-12T07:34:11;7.30;;;4.65;;
49193;SDS011;35029;50.804;12.866;2023-09-12T07:36:39;9.43;;;5.05;;
49193;SDS011;35029;50.804;12.866;2023-09-12T07:39:05;7.00;;;5.00;;
49193;SDS011;35029;50.804;12.866;2023-09-12T07:41:31;7.93;;;4.68;;
49193;SDS011;35029;50.804;12.866;2023-09-12T07:43:57;7.30;;;5.13;;
49193;SDS011;35029;50.804;12.866;2023-09-12T07:46:23;5.88;;;4.60;;
49193;SDS011;35029;50.804;12.866;2023-09-12T07:48:48;7.13;;;5.25;;
49193;SDS011;35029;50.804;12.866;2023-09-12T07:51:14;6.63;;;4.82;;
49193;SDS011;35029;50.804;12.866;2023-09-12T07:53:40;7.03;;;5.00;;
49193;SDS011;35029;50.804;12.866;2023-09-12T07:56:08;9.55;;;5.43;;
49193;SDS011;35029;50.804;12.866;2023-09-12T07:58:34;7.93;;;5.90;;
49193;SDS011;35029;50.804;12.866;2023-09-12T08:01:00;5.72;;;4.95;;
49193;SDS011;35029;50.804;12.866;2023-09-12T08:03:30;10.55;;;5.95;;
49193;SDS011;35029;50.804;12.866;2023-09-12T08:05:58;8.38;;;5.95;;
49193;SDS011;35029;50.804;12.866;2023-09-12T08:08:24;10.30;;;5.65;;
49193;SDS011;35029;50.804;12.866;2023-09-12T08:10:50;8.40;;;6.38;;
49193;SDS011;35029;50.804;12.866;2023-09-12T08:13:15;9.88;;;6.10;;
49193;SDS011;35029;50.804;12.866;2023-09-12T08:15:41;12.63;;;6.68;;
49193;SDS011;35029;50.804;12.866;2023-09-12T08:18:06;8.50;;;5.22;;
49193;SDS011;35029;50.804;12.866;2023-09-12T08:20:32;14.95;;;6.32;;
49193;SDS011;35029;50.804;12.866;2023-09-12T08:22:57;13.13;;;6.10;;
49193;SDS011;35029;50.804;12.866;2023-09-12T08:25:23;10.05;;;5.07;;
49193;SDS011;35029;50.804;12.866;2023-09-12T08:27:50;15.02;;;6.43;;
49193;SDS011;35029;50.804;12.866;2023-09-12T08:30:15;12.80;;;6.05;;
49193;SDS011;35029;50.804;12.866;2023-09-12T08:32:41;9.45;;;5.55;;
49193;SDS011;35029;50.804;12.866;2023-09-12T08:35:10;10.38;;;5.82;;
49193;SDS011;35029;50.804;12.866;2023-09-12T08:37:39;10.85;;;5.70;;
49193;SDS011;35029;50.804;12.866;2023-09-12T08:40:06;11.15;;;5.90;;
49193;SDS011;35029;50.804;12.866;2023-09-12T08:42:39;14.18;;;6.65;;
49193;SDS011;35029;50.804;12.866;2023-09-12T08:45:08;12.70;;;6.03;;
49193;SDS011;35029;50.804;12.866;2023-09-12T08:47:39;9.52;;;5.32;;
49193;SDS011;35029;50.804;12.866;2023-09-12T08:50:08;8.20;;;5.43;;
49193;SDS011;35029;50.804;12.866;2023-09-12T08:52:37;15.43;;;5.57;;
49193;SDS011;35029;50.804;12.866;2023-09-12T08:55:02;10.90;;;5.28;;
49193;SDS011;35029;50.804;12.866;2023-09-12T08:57:29;11.45;;;5.50;;
49193;SDS011;35029;50.804;12.866;2023-09-12T08:59:58;9.82;;;5.88;;
49193;SDS011;35029;50.804;12.866;2023-09-12T09:02:28;9.43;;;5.60;;
49193;SDS011;35029;50.804;12.866;2023-09-12T09:04:55;11.27;;;6.38;;
49193;SDS011;35029;50.804;12.866;2023-09-12T09:07:21;9.70;;;5.18;;
49193;SDS011;35029;50.804;12.866;2023-09-12T09:09:47;7.13;;;5.60;;
49193;SDS011;35029;50.804;12.866;2023-09-12T09:12:16;10.68;;;5.78;;
49193;SDS011;35029;50.804;12.866;2023-09-12T09:14:42;10.80;;;5.85;;
49193;SDS011;35029;50.804;12.866;2023-09-12T09:17:08;14.30;;;5.85;;
49193;SDS011;35029;50.804;12.866;2023-09-12T09:19:42;10.52;;;5.38;;
49193;SDS011;35029;50.804;12.866;2023-09-12T09:22:08;12.10;;;4.78;;
49193;SDS011;35029;50.804;12.866;2023-09-12T09:24:34;7.90;;;4.47;;
49193;SDS011;35029;50.804;12.866;2023-09-12T09:27:00;10.13;;;5.35;;
49193;SDS011;35029;50.804;12.866;2023-09-12T09:29:27;8.88;;;4.90;;
49193;SDS011;35029;50.804;12.866;2023-09-12T09:31:59;12.65;;;4.93;;
49193;SDS011;35029;50.804;12.866;2023-09-12T09:34:30;14.52;;;5.32;;
49193;SDS011;35029;50.804;12.866;2023-09-12T09:36:57;11.18;;;5.57;;
49193;SDS011;35029;50.804;12.866;2023-09-12T09:39:24;10.65;;;5.20;;
49193;SDS011;35029;50.804;12.866;2023-09-12T09:41:51;21.77;;;5.22;;
49193;SDS011;35029;50.804;12.866;2023-09-12T09:44:22;13.18;;;5.13;;
49193;SDS011;35029;50.804;12.866;2023-09-12T09:46:54;13.30;;;5.07;;
49193;SDS011;35029;50.804;12.866;2023-09-12T09:49:20;16.25;;;4.82;;
49193;SDS011;35029;50.804;12.866;2023-09-12T09:51:46;8.98;;;4.80;;
49193;SDS011;35029;50.804;12.866;2023-09-12T09:54:12;11.35;;;5.25;;
49193;SDS011;35029;50.804;12.866;2023-09-12T09:56:45;14.20;;;5.20;;
49193;SDS011;35029;50.804;12.866;2023-09-12T09:59:15;18.38;;;5.97;;
49193;SDS011;35029;50.804;12.866;2023-09-12T10:01:43;15.32;;;4.80;;
49193;SDS011;35029;50.804;12.866;2023-09-12T10:04:10;20.40;;;5.20;;
49193;SDS011;35029;50.804;12.866;2023-09-12T10:06:36;13.13;;;4.90;;
49193;SDS011;35029;50.804;12.866;2023-09-12T10:09:09;15.80;;;5.90;;
49193;SDS011;35029;50.804;12.866;2023-09-12T10:11:37;15.43;;;4.45;;
49193;SDS011;35029;50.804;12.866;2023-09-12T10:14:04;13.68;;;5.03;;
49193;SDS011;35029;50.804;12.866;2023-09-12T10:16:31;10.00;;;5.05;;
49193;SDS011;35029;50.804;12.866;2023-09-12T10:21:35;16.65;;;5.65;;
49193;SDS011;35029;50.804;12.866;2023-09-12T10:24:02;15.93;;;5.57;;
49193;SDS011;35029;50.804;12.866;2023-09-12T10:26:30;14.52;;;5.22;;
49193;SDS011;35029;50.804;12.866;2023-09-12T10:28:57;12.02;;;5.22;;
49193;SDS011;35029;50.804;12.866;2023-09-12T10:31:25;12.13;;;5.57;;
49193;SDS011;35029;50.804;12.866;2023-09-12T10:33:52;12.55;;;5.88;;
49193;SDS011;35029;50.804;12.866;2023-09-12T10:36:19;15.27;;;5.57;;
49193;SDS011;35029;50.804;12.866;2023-09-12T10:38:46;13.38;;;5.88;;
49193;SDS011;35029;50.804;12.866;2023-09-12T10:41:13;15.93;;;5.70;;
49193;SDS011;35029;50.804;12.866;2023-09-12T10:43:40;17.48;;;6.38;;
49193;SDS011;35029;50.804;12.866;2023-09-12T10:46:07;18.33;;;5.63;;
49193;SDS011;35029;50.804;12.866;2023-09-12T10:48:36;13.38;;;7.00;;
49193;SDS011;35029;50.804;12.866;2023-09-12T10:51:05;8.10;;;5.75;;
49193;SDS011;35029;50.804;12.866;2023-09-12T10:53:32;11.77;;;6.28;;
49193;SDS011;35029;50.804;12.866;2023-09-12T10:56:13;10.52;;;5.70;;
49193;SDS011;35029;50.804;12.866;2023-09-12T11:01:29;16.52;;;6.50;;
49193;SDS011;35029;50.804;12.866;2023-09-12T11:03:56;10.50;;;5.28;;
49193;SDS011;35029;50.804;12.866;2023-09-12T11:06:30;9.38;;;5.82;;
49193;SDS011;35029;50.804;12.866;2023-09-12T11:11:41;12.73;;;5.47;;
49193;SDS011;35029;50.804;12.866;2023-09-12T11:14:27;7.97;;;5.32;;
49193;SDS011;35029;50.804;12.866;2023-09-12T11:19:44;12.65;;;5.65;;
49193;SDS011;35029;50.804;12.866;2023-09-12T11:22:23;12.00;;;5.43;;
49193;SDS011;35029;50.804;12.866;2023-09-12T11:24:49;10.15;;;5.57;;
49193;SDS011;35029;50.804;12.866;2023-09-12T11:27:15;13.75;;;5.85;;
49193;SDS011;35029;50.804;12.866;2023-09-12T11:29:40;9.70;;;5.18;;
49193;SDS011;35029;50.804;12.866;2023-09-12T11:32:06;9.88;;;5.07;;
49193;SDS011;35029;50.804;12.866;2023-09-12T11:34:42;11.85;;;5.50;;
49193;SDS011;35029;50.804;12.866;2023-09-12T11:37:09;14.60;;;5.90;;
49193;SDS011;35029;50.804;12.866;2023-09-12T11:39:36;8.60;;;5.47;;
49193;SDS011;35029;50.804;12.866;2023-09-12T11:42:03;13.70;;;5.97;;
49193;SDS011;35029;50.804;12.866;2023-09-12T11:44:30;10.77;;;5.53;;
49193;SDS011;35029;50.804;12.866;2023-09-12T11:47:00;12.07;;;6.30;;
49193;SDS011;35029;50.804;12.866;2023-09-12T11:49:38;9.63;;;5.82;;
49193;SDS011;35029;50.804;12.866;2023-09-12T11:52:14;12.32;;;5.60;;
49193;SDS011;35029;50.804;12.866;2023-09-12T11:54:45;9.00;;;5.60;;
49193;SDS011;35029;50.804;12.866;2023-09-12T11:57:12;6.35;;;5.00;;
49193;SDS011;35029;50.804;12.866;2023-09-12T11:59:44;12.88;;;6.20;;
49193;SDS011;35029;50.804;12.866;2023-09-12T12:02:13;7.13;;;4.40;;
49193;SDS011;35029;50.804;12.866;2023-09-12T12:04:40;5.85;;;4.68;;
49193;SDS011;35029;50.804;12.866;2023-09-12T12:07:06;13.40;;;5.30;;
49193;SDS011;35029;50.804;12.866;2023-09-12T12:09:33;6.93;;;5.28;;
49193;SDS011;35029;50.804;12.866;2023-09-12T12:12:03;11.13;;;5.75;;
49193;SDS011;35029;50.804;12.866;2023-09-12T12:14:30;9.00;;;5.63;;
49193;SDS011;35029;50.804;12.866;2023-09-12T12:17:04;14.73;;;6.40;;
49193;SDS011;35029;50.804;12.866;2023-09-12T12:19:31;11.43;;;5.25;;
49193;SDS011;35029;50.804;12.866;2023-09-12T12:21:56;8.98;;;5.35;;
49193;SDS011;35029;50.804;12.866;2023-09-12T12:24:22;11.23;;;5.68;;
49193;SDS011;35029;50.804;12.866;2023-09-12T12:26:47;9.70;;;5.80;;
49193;SDS011;35029;50.804;12.866;2023-09-12T12:29:13;8.82;;;6.00;;
49193;SDS011;35029;50.804;12.866;2023-09-12T12:31:38;7.85;;;5.75;;
49193;SDS011;35029;50.804;12.866;2023-09-12T12:34:05;11.60;;;6.00;;
49193;SDS011;35029;50.804;12.866;2023-09-12T12:36:31;15.43;;;5.55;;
49193;SDS011;35029;50.804;12.866;2023-09-12T12:38:57;10.85;;;5.30;;
49193;SDS011;35029;50.804;12.866;2023-09-12T12:41:24;13.70;;;4.70;;
49193;SDS011;35029;50.804;12.866;2023-09-12T12:43:56;7.75;;;5.00;;
49193;SDS011;35029;50.804;12.866;2023-09-12T12:46:24;11.02;;;5.03;;
49193;SDS011;35029;50.804;12.866;2023-09-12T12:48:50;8.10;;;5.03;;
49193;SDS011;35029;50.804;12.866;2023-09-12T12:51:24;12.05;;;5.85;;
49193;SDS011;35029;50.804;12.866;2023-09-12T12:53:55;10.05;;;6.18;;
49193;SDS011;35029;50.804;12.866;2023-09-12T12:56:29;9.40;;;5.65;;
49193;SDS011;35029;50.804;12.866;2023-09-12T12:58:56;12.25;;;5.82;;
49193;SDS011;35029;50.804;12.866;2023-09-12T13:01:23;11.57;;;5.97;;
49193;SDS011;35029;50.804;12.866;2023-09-12T13:03:49;11.30;;;5.20;;
49193;SDS011;35029;50.804;12.866;2023-09-12T13:06:15;11.20;;;5.50;;
49193;SDS011;35029;50.804;12.866;2023-09-12T13:08:42;13.15;;;5.63;;
49193;SDS011;35029;50.804;12.866;2023-09-12T13:11:10;11.52;;;6.00;;
49193;SDS011;35029;50.804;12.866;2023-09-12T13:13:37;10.10;;;5.35;;
49193;SDS011;35029;50.804;12.866;2023-09-12T13:16:04;14.68;;;6.25;;
49193;SDS011;35029;50.804;12.866;2023-09-12T13:18:33;6.45;;;5.20;;
49193;SDS011;35029;50.804;12.866;2023-09-12T13:20:59;10.70;;;5.35;;
49193;SDS011;35029;50.804;12.866;2023-09-12T13:23:25;8.90;;;5.03;;
49193;SDS011;35029;50.804;12.866;2023-09-12T13:25:51;12.30;;;6.13;;
49193;SDS011;35029;50.804;12.866;2023-09-12T13:28:17;11.02;;;5.60;;
49193;SDS011;35029;50.804;12.866;2023-09-12T13:30:42;15.07;;;6.28;;
49193;SDS011;35029;50.804;12.866;2023-09-12T13:33:10;12.07;;;5.03;;
49193;SDS011;35029;50.804;12.866;2023-09-12T13:35:41;12.85;;;5.05;;
49193;SDS011;35029;50.804;12.866;2023-09-12T13:38:07;9.77;;;4.82;;
49193;SDS011;35029;50.804;12.866;2023-09-12T13:40:38;13.02;;;6.03;;
49193;SDS011;35029;50.804;12.866;2023-09-12T13:43:04;8.07;;;4.65;;
49193;SDS011;35029;50.804;12.866;2023-09-12T13:45:30;13.75;;;6.00;;
49193;SDS011;35029;50.804;12.866;2023-09-12T13:47:57;12.80;;;4.95;;
49193;SDS011;35029;50.804;12.866;2023-09-12T13:50:23;10.57;;;4.95;;
49193;SDS011;35029;50.804;12.866;2023-09-12T13:52:49;8.88;;;5.43;;
49193;SDS011;35029;50.804;12.866;2023-09-12T13:55:14;10.23;;;5.43;;
49193;SDS011;35029;50.804;12.866;2023-09-12T13:57:41;10.38;;;5.82;;
49193;SDS011;35029;50.804;12.866;2023-09-12T14:00:07;12.20;;;5.10;;
49193;SDS011;35029;50.804;12.866;2023-09-12T14:02:34;9.15;;;5.50;;
49193;SDS011;35029;50.804;12.866;2023-09-12T14:05:00;12.05;;;5.68;;
49193;SDS011;35029;50.804;12.866;2023-09-12T14:07:28;7.63;;;5.15;;
49193;SDS011;35029;50.804;12.866;2023-09-12T14:09:53;8.35;;;5.20;;
49193;SDS011;35029;50.804;12.866;2023-09-12T14:12:24;9.85;;;5.28;;
49193;SDS011;35029;50.804;12.866;2023-09-12T14:17:17;7.53;;;5.07;;
49193;SDS011;35029;50.804;12.866;2023-09-12T14:19:43;11.15;;;5.50;;
49193;SDS011;35029;50.804;12.866;2023-09-12T14:22:08;11.13;;;5.45;;
49193;SDS011;35029;50.804;12.866;2023-09-12T14:24:34;10.77;;;5.30;;
49193;SDS011;35029;50.804;12.866;2023-09-12T14:26:59;8.43;;;5.18;;
49193;SDS011;35029;50.804;12.866;2023-09-12T14:29:25;13.68;;;5.35;;
49193;SDS011;35029;50.804;12.866;2023-09-12T14:31:53;11.40;;;5.05;;
49193;SDS011;35029;50.804;12.866;2023-09-12T14:34:28;6.70;;;4.57;;
49193;SDS011;35029;50.804;12.866;2023-09-12T14:36:56;9.68;;;5.22;;
49193;SDS011;35029;50.804;12.866;2023-09-12T14:39:22;7.68;;;5.40;;
49193;SDS011;35029;50.804;12.866;2023-09-12T14:41:49;14.27;;;5.20;;
49193;SDS011;35029;50.804;12.866;2023-09-12T14:44:17;12.00;;;5.53;;